sensor_id;sensor_type;location;lat;lon;timestamp;pressure;altitude;pressure_sealevel;temperature;humidity
18749;BME280;9503;53.560;10.246;2023-02-19T07:02:30;101097.03;;;1.45;100.00
18749;BME280;9503;53.560;10.246;2023-02-19T07:04:57;101107.50;;;1.58;100.00
18749;BME280;9503;53.560;10.246;2023-02-19T07:07:23;101099.44;;;1.62;100.00
18749;BME280;9503;53.560;10.246;2023-02-19T07:09:50;101101.47;;;1.66;100.00
18749;BME280;9503;53.560;10.246;2023-02-19T07:12:17;101105.56;;;1.75;100.00
18749;BME280;9503;53.560;10.246;2023-02-19T07:14:43;101114.19;;;1.77;100.00
18749;BME280;9503;53.560;10.246;2023-02-19T07:17:10;101110.84;;;1.86;100.00
18749;BME280;9503;53.560;10.246;2023-02-19T07:19:38;101117.81;;;2.18;100.00
18749;BME280;9503;53.560;10.246;2023-02-19T07:22:05;101126.81;;;2.14;100.00
18749;BME280;9503;53.560;10.246;2023-02-19T07:24:32;101129.31;;;2.14;100.00
18749;BME280;9503;53.560;10.246;2023-02-19T07:26:59;101131.19;;;2.36;100.00
18749;BME280;9503;53.560;10.246;2023-02-19T07:29:25;101142.56;;;2.31;100.00
18749;BME280;9503;53.560;10.246;2023-02-19T07:31:52;101148.81;;;2.44;100.00
18749;BME280;9503;53.560;10.246;2023-02-19T07:34:22;101153.69;;;2.62;100.00
18749;BME280;9503;53.560;10.246;2023-02-19T07:36:50;101147.88;;;3.22;100.00
18749;BME280;9503;53.560;10.246;2023-02-19T07:39:24;101148.78;;;3.64;100.00
18749;BME280;9503;53.560;10.246;2023-02-19T07:41:52;101150.78;;;3.88;100.00
18749;BME280;9503;53.560;10.246;2023-02-19T07:44:19;101161.34;;;4.25;100.00
18749;BME280;9503;53.560;10.246;2023-02-19T07:46:46;101170.06;;;3.86;100.00
18749;BME280;9503;53.560;10.246;2023-02-19T07:49:13;101178.38;;;4.15;100.00
18749;BME280;9503;53.560;10.246;2023-02-19T07:51:42;101179.28;;;4.06;100.00
18749;BME280;9503;53.560;10.246;2023-02-19T07:54:14;101180.19;;;4.49;100.00
18749;BME280;9503;53.560;10.246;2023-02-19T07:56:44;101183.25;;;4.44;100.00
18749;BME280;9503;53.560;10.246;2023-02-19T07:59:11;101180.84;;;4.78;100.00
18749;BME280;9503;53.560;10.246;2023-02-19T08:01:40;101188.22;;;4.33;100.00
18749;BME280;9503;53.560;10.246;2023-02-19T08:04:24;101193.75;;;4.07;100.00
18749;BME280;9503;53.560;10.246;2023-02-19T08:06:52;101204.03;;;3.88;100.00
18749;BME280;9503;53.560;10.246;2023-02-19T08:09:36;101215.44;;;3.73;100.00
18749;BME280;9503;53.560;10.246;2023-02-19T08:12:03;101224.06;;;3.65;100.00
18749;BME280;9503;53.560;10.246;2023-02-19T08:14:55;101224.06;;;3.54;100.00
18749;BME280;9503;53.560;10.246;2023-02-19T08:17:25;101226.72;;;3.66;100.00
18749;BME280;9503;53.560;10.246;2023-02-19T08:19:52;101234.22;;;4.05;100.00
18749;BME280;9503;53.560;10.246;2023-02-19T08:22:22;101240.44;;;4.19;100.00
18749;BME280;9503;53.560;10.246;2023-02-19T08:24:50;101240.34;;;4.50;100.00
18749;BME280;9503;53.560;10.246;2023-02-19T08:27:17;101229.59;;;4.74;100.00
18749;BME280;9503;53.560;10.246;2023-02-19T08:29:48;101233.91;;;4.85;100.00
18749;BME280;9503;53.560;10.246;2023-02-19T08:32:25;101240.31;;;4.92;100.00
18749;BME280;9503;53.560;10.246;2023-02-19T08:34:56;101237.31;;;4.86;100.00
18749;BME280;9503;53.560;10.246;2023-02-19T08:37:23;101241.88;;;5.12;100.00
18749;BME280;9503;53.560;10.246;2023-02-19T08:40:00;101244.84;;;5.28;100.00
18749;BME280;9503;53.560;10.246;2023-02-19T08:42:32;101252.66;;;5.19;100.00
18749;BME280;9503;53.560;10.246;2023-02-19T08:45:14;101250.47;;;5.24;100.00
18749;BME280;9503;53.560;10.246;2023-02-19T08:47:40;101265.94;;;5.49;100.00
18749;BME280;9503;53.560;10.246;2023-02-19T08:50:19;101274.53;;;5.61;100.00
18749;BME280;9503;53.560;10.246;2023-02-19T08:52:51;101276.50;;;5.53;100.00
18749;BME280;9503;53.560;10.246;2023-02-19T08:55:20;101296.34;;;5.69;100.00
18749;BME280;9503;53.560;10.246;2023-02-19T08:57:46;101302.22;;;5.68;100.00
18749;BME280;9503;53.560;10.246;2023-02-19T09:00:14;101313.34;;;5.59;100.00
18749;BME280;9503;53.560;10.246;2023-02-19T09:02:43;101325.69;;;5.98;100.00
18749;BME280;9503;53.560;10.246;2023-02-19T09:05:16;101328.31;;;5.88;100.00
18749;BME280;9503;53.560;10.246;2023-02-19T09:07:51;101332.25;;;5.84;100.00
18749;BME280;9503;53.560;10.246;2023-02-19T09:10:22;101339.88;;;5.62;100.00
18749;BME280;9503;53.560;10.246;2023-02-19T09:12:51;101354.66;;;5.56;100.00
18749;BME280;9503;53.560;10.246;2023-02-19T09:15:18;101358.53;;;5.51;100.00
18749;BME280;9503;53.560;10.246;2023-02-19T09:17:50;101363.81;;;5.32;100.00
18749;BME280;9503;53.560;10.246;2023-02-19T09:20:19;101360.59;;;5.35;100.00
18749;BME280;9503;53.560;10.246;2023-02-19T09:23:03;101370.91;;;5.58;100.00
18749;BME280;9503;53.560;10.246;2023-02-19T09:25:38;101379.38;;;6.01;100.00
18749;BME280;9503;53.560;10.246;2023-02-19T09:28:05;101388.06;;;6.15;100.00
18749;BME280;9503;53.560;10.246;2023-02-19T09:30:35;101394.06;;;6.49;100.00
18749;BME280;9503;53.560;10.246;2023-02-19T09:33:03;101391.72;;;6.52;100.00
18749;BME280;9503;53.560;10.246;2023-02-19T09:35:30;101387.69;;;6.77;100.00
18749;BME280;9503;53.560;10.246;2023-02-19T09:38:02;101399.66;;;6.90;100.00
18749;BME280;9503;53.560;10.246;2023-02-19T09:40:29;101402.53;;;6.83;100.00
18749;BME280;9503;53.560;10.246;2023-02-19T09:42:57;101400.53;;;6.79;100.00
18749;BME280;9503;53.560;10.246;2023-02-19T09:45:29;101401.97;;;6.63;100.00
18749;BME280;9503;53.560;10.246;2023-02-19T09:47:57;101417.72;;;7.05;100.00
18749;BME280;9503;53.560;10.246;2023-02-19T09:50:31;101426.59;;;7.33;100.00
18749;BME280;9503;53.560;10.246;2023-02-19T09:53:03;101431.38;;;7.40;100.00
18749;BME280;9503;53.560;10.246;2023-02-19T09:55:33;101425.59;;;7.66;100.00
18749;BME280;9503;53.560;10.246;2023-02-19T09:58:07;101428.28;;;7.93;100.00
18749;BME280;9503;53.560;10.246;2023-02-19T10:00:42;101418.88;;;7.92;100.00
18749;BME280;9503;53.560;10.246;2023-02-19T10:03:18;101431.50;;;8.02;100.00
18749;BME280;9503;53.560;10.246;2023-02-19T10:05:46;101438.91;;;8.11;100.00
18749;BME280;9503;53.560;10.246;2023-02-19T10:08:17;101450.03;;;8.48;100.00
18749;BME280;9503;53.560;10.246;2023-02-19T10:10:44;101461.50;;;8.29;100.00
18749;BME280;9503;53.560;10.246;2023-02-19T10:13:17;101461.75;;;8.21;100.00
18749;BME280;9503;53.560;10.246;2023-02-19T10:15:47;101469.06;;;8.40;100.00
18749;BME280;9503;53.560;10.246;2023-02-19T10:18:16;101480.81;;;8.74;100.00
18749;BME280;9503;53.560;10.246;2023-02-19T10:20:45;101473.13;;;8.88;100.00
18749;BME280;9503;53.560;10.246;2023-02-19T10:23:13;101485.13;;;8.89;100.00
18749;BME280;9503;53.560;10.246;2023-02-19T10:25:43;101489.22;;;8.98;100.00
18749;BME280;9503;53.560;10.246;2023-02-19T10:28:14;101504.31;;;9.20;100.00
18749;BME280;9503;53.560;10.246;2023-02-19T10:30:47;101507.88;;;9.35;100.00
18749;BME280;9503;53.560;10.246;2023-02-19T10:33:17;101506.09;;;9.34;100.00
18749;BME280;9503;53.560;10.246;2023-02-19T10:35:52;101513.81;;;9.48;100.00
18749;BME280;9503;53.560;10.246;2023-02-19T10:38:21;101511.03;;;9.58;100.00
18749;BME280;9503;53.560;10.246;2023-02-19T10:40:56;101507.56;;;9.31;99.81
18749;BME280;9503;53.560;10.246;2023-02-19T10:43:28;101503.06;;;9.02;94.65
18749;BME280;9503;53.560;10.246;2023-02-19T10:46:01;101505.88;;;8.55;93.87
18749;BME280;9503;53.560;10.246;2023-02-19T10:48:30;101508.97;;;9.01;94.89
18749;BME280;9503;53.560;10.246;2023-02-19T10:51:00;101519.81;;;9.10;93.47
18749;BME280;9503;53.560;10.246;2023-02-19T10:53:40;101521.25;;;9.18;93.70
18749;BME280;9503;53.560;10.246;2023-02-19T10:56:09;101524.16;;;9.62;92.31
18749;BME280;9503;53.560;10.246;2023-02-19T10:58:38;101511.03;;;9.58;87.70
18749;BME280;9503;53.560;10.246;2023-02-19T11:01:12;101519.38;;;9.29;87.27
18749;BME280;9503;53.560;10.246;2023-02-19T11:03:39;101521.84;;;9.27;88.05
18749;BME280;9503;53.560;10.246;2023-02-19T11:06:08;101528.91;;;9.18;86.78
18749;BME280;9503;53.560;10.246;2023-02-19T11:08:45;101538.28;;;8.93;84.55
18749;BME280;9503;53.560;10.246;2023-02-19T11:11:27;101539.78;;;9.02;85.84
18749;BME280;9503;53.560;10.246;2023-02-19T11:13:59;101552.16;;;9.34;85.15
18749;BME280;9503;53.560;10.246;2023-02-19T11:16:40;101543.63;;;9.60;85.51
18749;BME280;9503;53.560;10.246;2023-02-19T11:19:27;101544.50;;;9.61;84.73
18749;BME280;9503;53.560;10.246;2023-02-19T11:21:54;101540.28;;;9.75;84.78
18749;BME280;9503;53.560;10.246;2023-02-19T11:24:25;101535.84;;;9.59;86.24
18749;BME280;9503;53.560;10.246;2023-02-19T11:26:54;101538.59;;;9.75;84.05
18749;BME280;9503;53.560;10.246;2023-02-19T11:29:24;101541.34;;;10.05;81.04
18749;BME280;9503;53.560;10.246;2023-02-19T11:31:53;101543.91;;;10.05;80.63
18749;BME280;9503;53.560;10.246;2023-02-19T11:34:28;101529.53;;;10.07;77.37
18749;BME280;9503;53.560;10.246;2023-02-19T11:37:11;101532.19;;;10.08;74.11
18749;BME280;9503;53.560;10.246;2023-02-19T11:39:39;101544.78;;;10.05;75.21
18749;BME280;9503;53.560;10.246;2023-02-19T11:42:23;101540.06;;;10.11;75.97
18749;BME280;9503;53.560;10.246;2023-02-19T11:45:05;101545.31;;;10.00;77.30
18749;BME280;9503;53.560;10.246;2023-02-19T11:48:05;101549.94;;;9.92;76.72
18749;BME280;9503;53.560;10.246;2023-02-19T11:50:45;101565.19;;;10.04;75.24
18749;BME280;9503;53.560;10.246;2023-02-19T11:53:20;101559.28;;;10.31;74.95
18749;BME280;9503;53.560;10.246;2023-02-19T11:56:00;101562.97;;;10.49;72.55
18749;BME280;9503;53.560;10.246;2023-02-19T11:58:49;101547.56;;;10.63;71.02
18749;BME280;9503;53.560;10.246;2023-02-19T12:01:22;101559.56;;;10.64;71.32
18749;BME280;9503;53.560;10.246;2023-02-19T12:07:04;101558.69;;;10.91;68.31
18749;BME280;9503;53.560;10.246;2023-02-19T12:09:47;101544.41;;;10.67;68.82
18749;BME280;9503;53.560;10.246;2023-02-19T12:12:36;101551.94;;;10.78;69.52
18749;BME280;9503;53.560;10.246;2023-02-19T12:15:38;101549.38;;;10.50;69.86
18749;BME280;9503;53.560;10.246;2023-02-19T12:21:09;101553.44;;;10.47;65.12
18749;BME280;9503;53.560;10.246;2023-02-19T12:26:45;101566.47;;;10.37;67.99
18749;BME280;9503;53.560;10.246;2023-02-19T12:29:31;101568.34;;;10.39;68.48
18749;BME280;9503;53.560;10.246;2023-02-19T12:32:18;101566.06;;;10.44;66.56
18749;BME280;9503;53.560;10.246;2023-02-19T12:35:15;101563.59;;;10.45;68.23
18749;BME280;9503;53.560;10.246;2023-02-19T12:37:52;101578.88;;;10.17;68.52
18749;BME280;9503;53.560;10.246;2023-02-19T12:40:29;101578.31;;;10.21;67.80
18749;BME280;9503;53.560;10.246;2023-02-19T12:43:08;101567.19;;;9.94;70.93
18749;BME280;9503;53.560;10.246;2023-02-19T12:45:41;101580.09;;;10.09;71.76
18749;BME280;9503;53.560;10.246;2023-02-19T12:48:15;101577.13;;;10.16;72.32
18749;BME280;9503;53.560;10.246;2023-02-19T12:50:48;101582.44;;;10.33;73.01
18749;BME280;9503;53.560;10.246;2023-02-19T12:53:30;101573.69;;;10.29;73.06
18749;BME280;9503;53.560;10.246;2023-02-19T12:55:59;101575.94;;;9.98;70.67
18749;BME280;9503;53.560;10.246;2023-02-19T12:58:33;101580.16;;;10.50;68.82
18749;BME280;9503;53.560;10.246;2023-02-19T13:01:02;101576.28;;;10.85;68.77
18749;BME280;9503;53.560;10.246;2023-02-19T13:03:34;101573.19;;;10.91;68.14
18749;BME280;9503;53.560;10.246;2023-02-19T13:06:09;101564.50;;;11.17;67.72
18749;BME280;9503;53.560;10.246;2023-02-19T13:08:41;101559.75;;;10.80;66.34
18749;BME280;9503;53.560;10.246;2023-02-19T13:11:14;101560.31;;;10.48;69.06
18749;BME280;9503;53.560;10.246;2023-02-19T13:13:46;101562.31;;;10.12;70.19
18749;BME280;9503;53.560;10.246;2023-02-19T13:16:16;101555.84;;;9.91;69.83
18749;BME280;9503;53.560;10.246;2023-02-19T13:18:46;101555.03;;;10.05;71.72
18749;BME280;9503;53.560;10.246;2023-02-19T13:21:18;101556.59;;;9.37;73.66
18749;BME280;9503;53.560;10.246;2023-02-19T13:23:59;101548.34;;;9.54;73.69
18749;BME280;9503;53.560;10.246;2023-02-19T13:27:03;101540.38;;;9.76;71.92
18749;BME280;9503;53.560;10.246;2023-02-19T13:29:47;101537.22;;;10.07;72.99
18749;BME280;9503;53.560;10.246;2023-02-19T13:32:28;101536.13;;;9.77;72.74
18749;BME280;9503;53.560;10.246;2023-02-19T13:35:21;101541.06;;;10.00;73.54
18749;BME280;9503;53.560;10.246;2023-02-19T13:37:52;101544.53;;;10.01;72.97
18749;BME280;9503;53.560;10.246;2023-02-19T13:40:26;101549.91;;;10.18;71.54
18749;BME280;9503;53.560;10.246;2023-02-19T13:42:57;101538.78;;;10.31;70.18
18749;BME280;9503;53.560;10.246;2023-02-19T13:45:30;101546.59;;;10.61;71.12
18749;BME280;9503;53.560;10.246;2023-02-19T13:48:00;101544.56;;;10.70;71.34
18749;BME280;9503;53.560;10.246;2023-02-19T13:50:28;101541.28;;;10.58;71.75
18749;BME280;9503;53.560;10.246;2023-02-19T13:52:57;101542.53;;;9.96;73.37
18749;BME280;9503;53.560;10.246;2023-02-19T13:55:50;101552.00;;;9.71;76.58
18749;BME280;9503;53.560;10.246;2023-02-19T14:04:42;101553.44;;;10.20;78.23
18749;BME280;9503;53.560;10.246;2023-02-19T14:13:54;101568.16;;;9.70;78.55
18749;BME280;9503;53.560;10.246;2023-02-19T14:16:29;101555.13;;;9.54;80.01
18749;BME280;9503;53.560;10.246;2023-02-19T14:18:56;101565.34;;;9.27;80.07
18749;BME280;9503;53.560;10.246;2023-02-19T14:21:24;101572.50;;;9.71;79.69
18749;BME280;9503;53.560;10.246;2023-02-19T14:23:59;101576.97;;;10.55;77.97
18749;BME280;9503;53.560;10.246;2023-02-19T14:26:30;101571.84;;;10.83;74.36
18749;BME280;9503;53.560;10.246;2023-02-19T14:28:58;101576.16;;;10.69;72.94
18749;BME280;9503;53.560;10.246;2023-02-19T14:31:27;101564.06;;;11.24;72.69
18749;BME280;9503;53.560;10.246;2023-02-19T14:33:55;101563.44;;;10.85;72.86
18749;BME280;9503;53.560;10.246;2023-02-19T14:36:31;101561.13;;;11.18;72.62
18749;BME280;9503;53.560;10.246;2023-02-19T14:39:01;101572.50;;;10.37;76.42
18749;BME280;9503;53.560;10.246;2023-02-19T14:41:33;101570.56;;;10.61;77.33
18749;BME280;9503;53.560;10.246;2023-02-19T14:44:05;101564.72;;;10.09;76.42
18749;BME280;9503;53.560;10.246;2023-02-19T14:46:36;101553.84;;;9.47;74.37
18749;BME280;9503;53.560;10.246;2023-02-19T14:49:10;101544.63;;;9.89;71.04
18749;BME280;9503;53.560;10.246;2023-02-19T14:51:42;101560.38;;;9.82;70.74
18749;BME280;9503;53.560;10.246;2023-02-19T14:54:14;101549.25;;;9.55;70.77
18749;BME280;9503;53.560;10.246;2023-02-19T14:56:45;101545.78;;;9.54;71.50
18749;BME280;9503;53.560;10.246;2023-02-19T14:59:25;101544.13;;;9.55;71.91
18749;BME280;9503;53.560;10.246;2023-02-19T15:01:59;101547.19;;;9.62;71.68
18749;BME280;9503;53.560;10.246;2023-02-19T15:04:28;101542.03;;;10.02;71.30
18749;BME280;9503;53.560;10.246;2023-02-19T15:06:56;101535.16;;;9.88;73.65
18749;BME280;9503;53.560;10.246;2023-02-19T15:09:29;101545.72;;;9.79;74.55
18749;BME280;9503;53.560;10.246;2023-02-19T15:11:59;101559.06;;;9.62;76.36
18749;BME280;9503;53.560;10.246;2023-02-19T15:14:27;101556.63;;;9.77;77.41
18749;BME280;9503;53.560;10.246;2023-02-19T15:16:57;101558.00;;;9.98;77.58
18749;BME280;9503;53.560;10.246;2023-02-19T15:19:25;101554.38;;;9.55;78.95
18749;BME280;9503;53.560;10.246;2023-02-19T15:21:52;101556.50;;;9.62;79.65
18749;BME280;9503;53.560;10.246;2023-02-19T15:24:20;101559.88;;;9.09;81.35
18749;BME280;9503;53.560;10.246;2023-02-19T15:26:48;101558.56;;;9.03;82.65
18749;BME280;9503;53.560;10.246;2023-02-19T15:29:19;101559.38;;;8.77;84.48
18749;BME280;9503;53.560;10.246;2023-02-19T15:31:47;101562.53;;;8.61;85.69
18749;BME280;9503;53.560;10.246;2023-02-19T15:34:15;101546.19;;;8.59;86.75
18749;BME280;9503;53.560;10.246;2023-02-19T15:36:43;101559.69;;;8.81;86.52
18749;BME280;9503;53.560;10.246;2023-02-19T15:39:16;101555.66;;;8.60;86.10
18749;BME280;9503;53.560;10.246;2023-02-19T15:41:50;101561.97;;;8.90;86.85
18749;BME280;9503;53.560;10.246;2023-02-19T15:44:36;101570.72;;;8.69;86.19
18749;BME280;9503;53.560;10.246;2023-02-19T15:47:13;101565.81;;;8.23;88.72
18749;BME280;9503;53.560;10.246;2023-02-19T15:49:49;101563.03;;;8.32;88.49
18749;BME280;9503;53.560;10.246;2023-02-19T15:52:24;101566.81;;;8.14;89.44
18749;BME280;9503;53.560;10.246;2023-02-19T15:54:55;101567.25;;;8.20;90.07
18749;BME280;9503;53.560;10.246;2023-02-19T15:57:31;101566.69;;;8.36;88.88
18749;BME280;9503;53.560;10.246;2023-02-19T16:00:03;101574.28;;;8.11;90.25
18749;BME280;9503;53.560;10.246;2023-02-19T16:02:31;101576.69;;;8.21;90.15
18749;BME280;9503;53.560;10.246;2023-02-19T16:04:58;101576.63;;;7.96;91.91
18749;BME280;9503;53.560;10.246;2023-02-19T16:07:27;101581.72;;;7.96;91.83
18749;BME280;9503;53.560;10.246;2023-02-19T16:10:16;101575.16;;;7.76;92.04
18749;BME280;9503;53.560;10.246;2023-02-19T16:12:53;101576.16;;;7.78;92.77
18749;BME280;9503;53.560;10.246;2023-02-19T16:15:21;101572.50;;;7.74;92.17
18749;BME280;9503;53.560;10.246;2023-02-19T16:17:48;101582.59;;;7.61;92.21
18749;BME280;9503;53.560;10.246;2023-02-19T16:20:19;101579.97;;;7.71;92.00
18749;BME280;9503;53.560;10.246;2023-02-19T16:22:47;101577.47;;;7.61;92.00
18749;BME280;9503;53.560;10.246;2023-02-19T16:25:29;101575.31;;;7.32;93.36
18749;BME280;9503;53.560;10.246;2023-02-19T16:27:58;101578.09;;;7.24;94.75
18749;BME280;9503;53.560;10.246;2023-02-19T16:30:29;101580.53;;;7.22;95.86
18749;BME280;9503;53.560;10.246;2023-02-19T16:33:19;101580.47;;;7.10;97.01
18749;BME280;9503;53.560;10.246;2023-02-19T16:35:46;101585.25;;;7.06;98.02
18749;BME280;9503;53.560;10.246;2023-02-19T16:38:15;101582.41;;;7.13;97.80
18749;BME280;9503;53.560;10.246;2023-02-19T16:41:09;101581.50;;;7.12;98.34
18749;BME280;9503;53.560;10.246;2023-02-19T16:43:40;101590.88;;;7.02;98.92
18749;BME280;9503;53.560;10.246;2023-02-19T16:46:10;101594.97;;;7.00;100.00
18749;BME280;9503;53.560;10.246;2023-02-19T16:48:38;101591.25;;;6.84;100.00
18749;BME280;9503;53.560;10.246;2023-02-19T16:51:06;101592.44;;;7.00;100.00
18749;BME280;9503;53.560;10.246;2023-02-19T16:53:32;101594.63;;;6.95;100.00
18749;BME280;9503;53.560;10.246;2023-02-19T16:55:59;101595.28;;;6.92;100.00
18749;BME280;9503;53.560;10.246;2023-02-19T16:58:26;101592.19;;;6.75;100.00
18749;BME280;9503;53.560;10.246;2023-02-19T17:00:52;101596.41;;;6.74;100.00
18749;BME280;9503;53.560;10.246;2023-02-19T17:03:23;101592.50;;;6.68;100.00
18749;BME280;9503;53.560;10.246;2023-02-19T17:05:50;101597.44;;;6.54;100.00
18749;BME280;9503;53.560;10.246;2023-02-19T17:08:31;101603.53;;;6.56;100.00
18749;BME280;9503;53.560;10.246;2023-02-19T17:11:00;101604.38;;;6.35;100.00
18749;BME280;9503;53.560;10.246;2023-02-19T17:13:27;101605.38;;;6.37;100.00
18749;BME280;9503;53.560;10.246;2023-02-19T17:15:54;101604.09;;;6.42;100.00
18749;BME280;9503;53.560;10.246;2023-02-19T17:18:22;101599.94;;;6.32;100.00
18749;BME280;9503;53.560;10.246;2023-02-19T17:20:52;101605.38;;;6.37;100.00
18749;BME280;9503;53.560;10.246;2023-02-19T17:23:20;101596.66;;;6.23;100.00
18749;BME280;9503;53.560;10.246;2023-02-19T17:25:47;101595.25;;;6.27;100.00
18749;BME280;9503;53.560;10.246;2023-02-19T17:28:14;101600.84;;;6.23;100.00
18749;BME280;9503;53.560;10.246;2023-02-19T17:30:40;101605.78;;;6.31;100.00
18749;BME280;9503;53.560;10.246;2023-02-19T17:33:07;101601.22;;;6.27;100.00
18749;BME280;9503;53.560;10.246;2023-02-19T17:35:35;101603.56;;;6.24;100.00
18749;BME280;9503;53.560;10.246;2023-02-19T17:38:02;101603.28;;;6.21;100.00
18749;BME280;9503;53.560;10.246;2023-02-19T17:40:34;101605.84;;;6.21;100.00
18749;BME280;9503;53.560;10.246;2023-02-19T17:43:03;101602.63;;;6.24;100.00
18749;BME280;9503;53.560;10.246;2023-02-19T17:45:30;101598.78;;;6.39;100.00
18749;BME280;9503;53.560;10.246;2023-02-19T17:47:57;101600.56;;;6.30;100.00
18749;BME280;9503;53.560;10.246;2023-02-19T17:50:25;101602.31;;;6.41;100.00
18749;BME280;9503;53.560;10.246;2023-02-19T17:52:53;101605.34;;;6.47;100.00
18749;BME280;9503;53.560;10.246;2023-02-19T17:55:20;101613.44;;;6.53;100.00
18749;BME280;9503;53.560;10.246;2023-02-19T17:57:48;101627.53;;;6.70;100.00
